createdAt,value
2017-06-18T00:02:10.008Z,14.97
2017-06-18T00:04:37.519Z,16.03
2017-06-18T00:07:04.989Z,16.30
2017-06-18T00:09:32.467Z,14.30
2017-06-18T00:11:59.943Z,15.27
2017-06-18T00:14:27.629Z,15.70
2017-06-18T00:16:55.609Z,16.47
2017-06-18T00:19:23.099Z,15.93
2017-06-18T00:21:50.587Z,16.00
2017-06-18T00:24:18.074Z,15.37
2017-06-18T00:26:46.058Z,15.70
2017-06-18T00:29:14.082Z,14.40
2017-06-18T00:31:41.648Z,16.77
2017-06-18T00:34:09.173Z,17.30
2017-06-18T00:36:36.630Z,15.03
2017-06-18T00:39:04.511Z,15.53
2017-06-18T00:41:31.973Z,14.73
2017-06-18T00:43:59.459Z,15.00
2017-06-18T00:46:26.925Z,16.03
2017-06-18T00:48:54.398Z,16.13
2017-06-18T00:51:21.950Z,15.80
2017-06-18T00:53:49.412Z,15.67
2017-06-18T00:56:17.602Z,16.00
2017-06-18T00:58:45.253Z,15.33
2017-06-18T01:01:12.815Z,16.73
2017-06-18T01:03:40.292Z,15.53
2017-06-18T01:06:07.788Z,15.07
2017-06-18T01:08:35.279Z,17.10
2017-06-18T01:11:02.796Z,15.20
2017-06-18T01:13:30.307Z,15.40
2017-06-18T01:15:58.372Z,15.13
2017-06-18T01:18:26.392Z,14.63
2017-06-18T01:20:54.624Z,13.50
2017-06-18T01:23:22.523Z,14.17
2017-06-18T01:25:50.033Z,14.13
2017-06-18T01:28:17.541Z,14.80
2017-06-18T01:30:45.019Z,16.50
2017-06-18T01:33:12.559Z,14.30
2017-06-18T01:35:40.227Z,13.83
2017-06-18T01:38:08.071Z,15.07
2017-06-18T01:40:35.557Z,14.73
2017-06-18T01:43:03.109Z,15.30
2017-06-18T01:45:30.589Z,14.27
2017-06-18T01:47:58.095Z,14.87
2017-06-18T01:50:25.712Z,14.23
2017-06-18T01:52:53.197Z,13.00
2017-06-18T01:55:20.644Z,15.43
2017-06-18T01:57:48.205Z,14.97
2017-06-18T02:00:15.891Z,14.33
2017-06-18T02:02:43.385Z,14.00
2017-06-18T02:05:10.867Z,14.20
2017-06-18T02:07:38.335Z,13.60
2017-06-18T02:10:05.852Z,14.40
2017-06-18T02:12:33.633Z,15.73
2017-06-18T02:15:01.099Z,14.93
2017-06-18T02:17:28.595Z,14.57
2017-06-18T02:19:56.055Z,17.33
2017-06-18T02:22:23.522Z,14.47
2017-06-18T02:24:51.241Z,14.63
2017-06-18T02:27:18.761Z,14.70
2017-06-18T02:29:46.222Z,13.70
2017-06-18T02:32:14.681Z,14.43
2017-06-18T02:34:42.199Z,14.20
2017-06-18T02:37:09.694Z,14.00
2017-06-18T02:39:37.204Z,16.70
2017-06-18T02:42:04.676Z,16.60
2017-06-18T02:44:32.127Z,14.67
2017-06-18T02:47:00.276Z,14.70
2017-06-18T02:49:27.733Z,14.77
2017-06-18T02:51:55.206Z,14.97
2017-06-18T02:54:22.757Z,14.93
2017-06-18T02:56:50.224Z,14.83
2017-06-18T02:59:17.687Z,14.47
2017-06-18T03:01:45.208Z,14.77
2017-06-18T03:04:13.055Z,15.67
2017-06-18T03:06:41.884Z,15.13
2017-06-18T03:09:09.611Z,14.07
2017-06-18T03:11:37.074Z,14.17
2017-06-18T03:14:04.551Z,14.30
2017-06-18T03:16:32.692Z,14.13
2017-06-18T03:19:00.474Z,13.33
2017-06-18T03:21:33.578Z,12.47
2017-06-18T03:24:01.043Z,13.17
2017-06-18T03:26:28.563Z,14.03
2017-06-18T03:28:56.104Z,13.70
2017-06-18T03:31:23.589Z,13.73
2017-06-18T03:33:51.099Z,14.03
2017-06-18T03:36:19.020Z,13.67
2017-06-18T03:38:46.487Z,13.83
2017-06-18T03:41:14.783Z,13.97
2017-06-18T03:43:42.465Z,15.27
2017-06-18T03:46:19.884Z,14.13
2017-06-18T03:48:47.367Z,12.97
2017-06-18T03:51:14.844Z,13.90
2017-06-18T03:53:42.304Z,12.63
2017-06-18T03:56:09.799Z,13.77
2017-06-18T03:58:37.263Z,13.47
2017-06-18T04:01:04.751Z,16.17
2017-06-18T04:03:33.036Z,15.40
2017-06-18T04:06:00.499Z,13.50
2017-06-18T04:08:27.967Z,14.90
2017-06-18T04:10:55.523Z,13.83
2017-06-18T04:13:23.404Z,15.40
2017-06-18T04:15:50.899Z,14.27
2017-06-18T04:18:18.464Z,13.50
2017-06-18T04:20:46.819Z,14.23
2017-06-18T04:23:14.331Z,14.20
2017-06-18T04:25:41.803Z,15.13
2017-06-18T04:28:09.255Z,15.80
2017-06-18T04:30:36.904Z,16.23
2017-06-18T04:33:04.800Z,15.60
2017-06-18T04:35:32.272Z,16.17
2017-06-18T04:37:59.760Z,15.73
2017-06-18T04:40:27.226Z,14.00
2017-06-18T04:42:54.868Z,16.57
2017-06-18T04:45:22.348Z,15.63
2017-06-18T04:47:50.737Z,16.00
2017-06-18T04:50:19.098Z,16.33
2017-06-18T04:52:46.563Z,16.80
2017-06-18T04:55:14.018Z,17.40
2017-06-18T04:57:41.522Z,16.30
2017-06-18T05:00:08.981Z,14.97
2017-06-18T05:02:36.436Z,16.30
2017-06-18T05:05:03.947Z,15.17
2017-06-18T05:07:31.410Z,15.90
2017-06-18T05:09:58.867Z,15.90
2017-06-18T05:12:26.516Z,15.50
2017-06-18T05:14:53.979Z,17.57
2017-06-18T05:17:21.447Z,16.87
2017-06-18T05:19:48.948Z,17.77
2017-06-18T05:22:16.786Z,17.13
2017-06-18T05:24:44.714Z,15.90
2017-06-18T05:27:12.175Z,17.70
2017-06-18T05:29:39.620Z,16.77
2017-06-18T05:32:07.119Z,14.70
2017-06-18T05:34:34.578Z,18.07
2017-06-18T05:37:02.033Z,16.27
2017-06-18T05:39:29.683Z,15.90
2017-06-18T05:41:57.250Z,15.30
2017-06-18T05:44:24.700Z,15.50
2017-06-18T05:46:52.205Z,14.57
2017-06-18T05:49:20.454Z,14.60
2017-06-18T05:51:47.925Z,13.27
2017-06-18T05:54:16.045Z,15.77
2017-06-18T05:56:43.558Z,14.20
2017-06-18T05:59:11.034Z,13.53
2017-06-18T06:01:39.320Z,14.33
2017-06-18T06:04:06.787Z,15.20
2017-06-18T06:06:34.305Z,13.93
2017-06-18T06:09:01.988Z,12.60
2017-06-18T06:11:29.436Z,12.93
2017-06-18T06:13:57.110Z,13.73
2017-06-18T06:16:24.565Z,13.97
2017-06-18T06:18:52.024Z,13.60
2017-06-18T06:21:19.532Z,14.57
2017-06-18T06:23:46.987Z,13.07
2017-06-18T06:26:14.440Z,13.00
2017-06-18T06:28:42.065Z,14.10
2017-06-18T06:31:09.511Z,14.27
2017-06-18T06:33:36.980Z,13.73
2017-06-18T06:36:04.495Z,12.87
2017-06-18T06:38:31.947Z,15.17
2017-06-18T06:40:59.964Z,14.20
2017-06-18T06:43:27.469Z,15.43
2017-06-18T06:45:54.942Z,14.70
2017-06-18T06:48:22.407Z,15.47
2017-06-18T06:50:49.886Z,13.87
2017-06-18T06:53:17.354Z,16.37
2017-06-18T06:55:44.820Z,14.63
2017-06-18T06:58:12.288Z,15.23
2017-06-18T07:00:39.769Z,15.10
2017-06-18T07:03:07.613Z,15.33
2017-06-18T07:05:35.873Z,15.57
2017-06-18T07:08:03.380Z,15.60
2017-06-18T07:10:30.846Z,16.10
2017-06-18T07:12:58.316Z,14.30
2017-06-18T07:15:25.819Z,15.23
2017-06-18T07:17:54.102Z,14.37
2017-06-18T07:20:21.667Z,15.07
2017-06-18T07:22:49.129Z,13.00
2017-06-18T07:25:16.608Z,14.23
2017-06-18T07:27:44.237Z,12.27
2017-06-18T07:30:11.698Z,12.00
2017-06-18T07:32:39.156Z,14.10
2017-06-18T07:35:06.634Z,12.23
2017-06-18T07:37:34.084Z,12.10
2017-06-18T07:40:01.548Z,10.30
2017-06-18T07:42:29.052Z,10.63
2017-06-18T07:44:56.532Z,11.70
2017-06-18T07:47:24.012Z,10.83
2017-06-18T07:49:51.558Z,9.60
2017-06-18T07:52:19.026Z,10.83
2017-06-18T07:54:46.511Z,12.07
2017-06-18T07:57:14.003Z,11.13
2017-06-18T07:59:41.471Z,11.40
2017-06-18T08:02:08.937Z,11.23
2017-06-18T08:04:36.475Z,7.00
2017-06-18T08:07:03.929Z,6.57
2017-06-18T08:09:31.388Z,6.00
2017-06-18T08:11:59.360Z,5.80
2017-06-18T08:14:26.823Z,5.70
2017-06-18T08:16:54.280Z,5.87
2017-06-18T08:19:21.796Z,5.73
2017-06-18T08:21:49.288Z,5.77
2017-06-18T08:24:16.766Z,5.80
2017-06-18T08:26:45.168Z,5.70
2017-06-18T08:29:13.027Z,6.10
2017-06-18T08:31:40.482Z,5.17
2017-06-18T08:35:35.776Z,5.00
2017-06-18T08:38:03.310Z,4.17
2017-06-18T08:40:30.788Z,4.00
2017-06-18T08:42:58.286Z,4.27
2017-06-18T08:45:25.749Z,3.50
2017-06-18T08:47:53.791Z,3.20
2017-06-18T08:50:21.300Z,3.03
2017-06-18T08:52:48.779Z,3.40
2017-06-18T08:55:16.250Z,3.00
2017-06-18T08:57:43.746Z,3.67
2017-06-18T09:00:11.199Z,3.10
2017-06-18T09:02:39.187Z,3.40
2017-06-18T09:05:06.700Z,4.40
2017-06-18T09:07:34.147Z,3.50
2017-06-18T09:10:01.616Z,3.47
2017-06-18T09:12:29.820Z,2.80
2017-06-18T09:14:57.250Z,3.03
2017-06-18T09:17:25.099Z,3.20
2017-06-18T09:19:52.523Z,3.10
2017-06-18T09:22:19.982Z,3.30
2017-06-18T09:24:47.442Z,4.00
2017-06-18T09:27:14.956Z,3.40
2017-06-18T09:29:42.413Z,3.00
2017-06-18T09:32:10.426Z,3.20
2017-06-18T09:34:37.907Z,3.17
2017-06-18T09:37:05.366Z,3.80
2017-06-18T09:39:32.815Z,3.07
2017-06-18T09:42:00.298Z,2.90
2017-06-18T09:44:27.804Z,2.50
2017-06-18T09:46:55.466Z,3.17
2017-06-18T09:49:22.927Z,2.70
2017-06-18T09:51:50.379Z,3.10
2017-06-18T09:54:18.759Z,2.70
2017-06-18T09:56:46.207Z,2.60
2017-06-18T09:59:13.714Z,3.13
2017-06-18T10:01:41.166Z,2.37
2017-06-18T10:04:08.609Z,2.37
2017-06-18T10:06:36.096Z,2.83
2017-06-18T10:09:03.548Z,2.80
2017-06-18T10:11:31.000Z,3.10
2017-06-18T10:13:58.629Z,2.90
2017-06-18T10:16:26.081Z,3.37
2017-06-18T10:18:53.893Z,3.77
2017-06-18T10:21:26.961Z,3.53
2017-06-18T10:23:54.405Z,3.43
2017-06-18T10:26:21.858Z,3.50
2017-06-18T10:28:49.529Z,2.83
2017-06-18T10:31:17.043Z,3.40
2017-06-18T10:33:44.497Z,3.53
2017-06-18T10:36:11.967Z,3.40
2017-06-18T10:38:39.897Z,3.27
2017-06-18T10:41:07.337Z,3.47
2017-06-18T10:43:34.799Z,3.70
2017-06-18T10:46:02.304Z,3.30
2017-06-18T10:48:30.586Z,3.40
2017-06-18T10:50:58.035Z,2.80
2017-06-18T10:53:25.536Z,3.60
2017-06-18T10:55:52.980Z,3.53
2017-06-18T10:58:20.436Z,3.70
2017-06-18T11:00:47.900Z,4.20
2017-06-18T11:03:15.355Z,3.70
2017-06-18T11:05:42.906Z,3.67
2017-06-18T11:08:10.360Z,3.70
2017-06-18T11:10:37.850Z,4.60
2017-06-18T11:13:05.344Z,3.70
2017-06-18T11:15:32.799Z,3.83
2017-06-18T11:18:00.263Z,3.80
2017-06-18T11:20:27.925Z,4.20
2017-06-18T11:22:55.376Z,4.17
2017-06-18T11:25:22.832Z,3.37
2017-06-18T11:27:50.463Z,3.97
2017-06-18T11:30:17.949Z,4.00
2017-06-18T11:32:45.422Z,3.67
2017-06-18T11:35:12.932Z,4.20
2017-06-18T11:37:40.388Z,3.67
2017-06-18T11:40:07.884Z,3.33
2017-06-18T11:42:35.342Z,3.30
2017-06-18T11:45:03.414Z,3.40
2017-06-18T11:47:30.936Z,3.30
2017-06-18T11:49:58.392Z,3.30
2017-06-18T11:52:25.847Z,2.90
2017-06-18T11:54:53.336Z,3.83
2017-06-18T11:57:20.818Z,3.60
2017-06-18T11:59:48.298Z,3.73
2017-06-18T12:02:15.790Z,4.07
2017-06-18T12:04:43.255Z,3.80
2017-06-18T12:07:10.700Z,3.73
2017-06-18T12:09:38.179Z,3.60
2017-06-18T12:12:05.678Z,3.27
2017-06-18T12:14:33.115Z,3.60
2017-06-18T12:17:00.556Z,3.40
2017-06-18T12:19:28.041Z,4.00
2017-06-18T12:21:55.504Z,3.83
2017-06-18T12:24:23.741Z,3.77
2017-06-18T12:26:51.252Z,3.17
2017-06-18T12:29:18.699Z,3.50
2017-06-18T12:31:46.155Z,3.67
2017-06-18T12:34:13.646Z,3.20
2017-06-18T12:36:41.084Z,3.93
2017-06-18T12:39:08.544Z,3.90
2017-06-18T12:41:36.070Z,3.10
2017-06-18T12:44:03.536Z,3.47
2017-06-18T12:46:32.691Z,3.47
2017-06-18T12:49:00.304Z,3.70
2017-06-18T12:51:27.750Z,3.40
2017-06-18T12:53:55.196Z,3.73
2017-06-18T12:56:22.713Z,3.40
2017-06-18T12:58:50.167Z,3.53
2017-06-18T13:01:17.626Z,3.60
2017-06-18T13:03:45.856Z,3.40
2017-06-18T13:06:14.741Z,3.30
2017-06-18T13:08:42.191Z,3.20
2017-06-18T13:11:09.672Z,3.67
2017-06-18T13:13:37.130Z,3.03
2017-06-18T13:16:04.621Z,3.20
2017-06-18T13:18:32.071Z,3.67
2017-06-18T13:20:59.529Z,3.73
2017-06-18T13:23:27.064Z,3.40
2017-06-18T13:25:54.527Z,3.27
2017-06-18T13:28:21.983Z,3.33
2017-06-18T13:30:49.492Z,3.23
2017-06-18T13:33:16.955Z,2.87
2017-06-18T13:35:44.415Z,3.50
2017-06-18T13:38:11.924Z,3.00
2017-06-18T13:40:39.375Z,3.20
2017-06-18T13:43:06.834Z,3.60
2017-06-18T13:45:34.475Z,3.30
2017-06-18T13:48:01.924Z,3.27
2017-06-18T13:50:30.194Z,2.80
2017-06-18T13:52:57.651Z,2.87
2017-06-18T13:55:25.172Z,2.83
2017-06-18T13:57:53.430Z,2.67
2017-06-18T14:00:20.879Z,3.10
2017-06-18T14:02:48.409Z,2.77
2017-06-18T14:05:15.876Z,2.50
2017-06-18T14:07:43.446Z,2.97
2017-06-18T14:10:11.109Z,3.00
2017-06-18T14:12:38.582Z,3.10
2017-06-18T14:15:06.023Z,3.20
2017-06-18T14:17:33.506Z,2.90
2017-06-18T14:20:00.966Z,2.70
2017-06-18T14:22:28.522Z,2.47
2017-06-18T14:24:56.321Z,2.50
2017-06-18T14:27:23.763Z,2.50
2017-06-18T14:29:51.263Z,2.20
2017-06-18T14:32:18.999Z,2.43
2017-06-18T14:34:46.444Z,2.10
2017-06-18T14:37:13.898Z,2.80
2017-06-18T14:39:41.400Z,2.43
2017-06-18T14:42:08.839Z,2.30
2017-06-18T14:44:36.281Z,2.20
2017-06-18T14:47:03.804Z,2.27
2017-06-18T14:49:31.275Z,2.70
2017-06-18T14:51:59.724Z,2.80
2017-06-18T14:54:27.213Z,2.57
2017-06-18T14:56:54.671Z,2.10
2017-06-18T14:59:22.123Z,2.70
2017-06-18T15:01:49.593Z,2.90
2017-06-18T15:04:17.039Z,2.00
2017-06-18T15:06:44.520Z,2.80
2017-06-18T15:09:11.976Z,3.30
2017-06-18T15:11:39.419Z,2.50
2017-06-18T15:14:06.917Z,2.43
2017-06-18T15:16:34.383Z,2.10
2017-06-18T15:19:01.848Z,2.40
2017-06-18T15:21:29.496Z,2.13
2017-06-18T15:23:56.986Z,2.50
2017-06-18T15:26:24.472Z,2.37
2017-06-18T15:28:52.166Z,2.53
2017-06-18T15:31:19.627Z,2.67
2017-06-18T15:33:47.083Z,2.30
2017-06-18T15:36:14.544Z,2.57
2017-06-18T15:38:42.702Z,2.63
2017-06-18T15:41:10.439Z,2.20
2017-06-18T15:43:37.871Z,2.03
2017-06-18T15:46:05.357Z,2.20
2017-06-18T15:48:32.851Z,2.53
2017-06-18T15:51:00.303Z,2.10
2017-06-18T15:53:27.788Z,2.70
2017-06-18T15:55:55.319Z,2.60
2017-06-18T15:58:22.759Z,2.60
2017-06-18T16:00:50.211Z,2.33
2017-06-18T16:03:17.677Z,2.33
2017-06-18T16:05:45.175Z,2.63
2017-06-18T16:08:12.627Z,2.13
2017-06-18T16:10:40.071Z,2.50
2017-06-18T16:13:07.565Z,3.13
2017-06-18T16:15:34.999Z,3.00
2017-06-18T16:18:02.459Z,2.50
2017-06-18T16:20:29.956Z,2.70
2017-06-18T16:22:57.416Z,2.20
2017-06-18T16:25:24.856Z,2.77
2017-06-18T16:27:52.364Z,2.60
2017-06-18T16:30:19.819Z,2.27
2017-06-18T16:32:49.978Z,2.60
2017-06-18T16:35:17.435Z,3.10
2017-06-18T16:37:44.887Z,2.50
2017-06-18T16:40:12.512Z,2.50
2017-06-18T16:42:39.971Z,3.40
2017-06-18T16:45:07.451Z,2.80
2017-06-18T16:47:34.955Z,2.13
2017-06-18T16:50:02.433Z,2.50
2017-06-18T16:52:29.888Z,2.53
2017-06-18T16:54:57.672Z,2.00
2017-06-18T16:57:25.123Z,2.40
2017-06-18T16:59:52.615Z,2.60
2017-06-18T17:02:20.093Z,3.20
2017-06-18T17:04:48.034Z,2.70
2017-06-18T17:07:15.559Z,2.90
2017-06-18T17:09:43.007Z,2.40
2017-06-18T17:12:10.489Z,2.27
2017-06-18T17:14:38.131Z,2.63
2017-06-18T17:17:06.277Z,2.63
2017-06-18T17:19:33.723Z,2.53
2017-06-18T17:22:06.836Z,2.50
2017-06-18T17:24:34.291Z,2.43
2017-06-18T17:27:01.804Z,2.67
2017-06-18T17:29:29.259Z,3.00
2017-06-18T17:31:56.705Z,2.20
2017-06-18T17:34:24.196Z,2.30
2017-06-18T17:36:51.638Z,2.53
2017-06-18T17:39:19.081Z,2.23
2017-06-18T17:41:46.543Z,2.23
2017-06-18T17:44:14.003Z,2.80
2017-06-18T17:46:41.503Z,2.60
2017-06-18T17:49:08.953Z,2.80
2017-06-18T17:51:36.403Z,2.70
2017-06-18T17:54:03.889Z,2.67
2017-06-18T17:56:31.345Z,1.97
2017-06-18T17:58:58.799Z,2.50
2017-06-18T18:01:26.616Z,2.73
2017-06-18T18:03:54.074Z,2.33
2017-06-18T18:06:21.523Z,2.40
2017-06-18T18:08:50.216Z,2.60
2017-06-18T18:11:17.671Z,2.40
2017-06-18T18:13:45.124Z,5.57
2017-06-18T18:16:12.603Z,2.53
2017-06-18T18:18:40.063Z,2.23
2017-06-18T18:21:07.503Z,2.87
2017-06-18T18:23:34.990Z,2.70
2017-06-18T18:26:02.447Z,3.03
2017-06-18T18:28:29.908Z,2.90
2017-06-18T18:30:57.402Z,2.50
2017-06-18T18:33:24.854Z,2.47
2017-06-18T18:35:52.996Z,2.30
2017-06-18T18:38:20.509Z,2.23
2017-06-18T18:40:47.967Z,2.30
2017-06-18T18:43:15.412Z,2.57
2017-06-18T18:45:43.193Z,2.30
2017-06-18T18:48:10.652Z,2.67
2017-06-18T18:50:38.584Z,2.57
2017-06-18T18:53:06.079Z,2.47
2017-06-18T18:55:33.522Z,2.60
2017-06-18T18:58:01.097Z,2.80
2017-06-18T19:00:28.775Z,2.70
2017-06-18T19:02:56.685Z,3.23
2017-06-18T19:05:24.131Z,2.73
2017-06-18T19:07:51.634Z,2.53
2017-06-18T19:10:19.071Z,2.77
2017-06-18T19:12:46.529Z,3.30
2017-06-18T19:15:14.238Z,3.40
2017-06-18T19:17:41.693Z,2.77
2017-06-18T19:20:09.514Z,3.00
2017-06-18T19:22:37.083Z,2.60
2017-06-18T19:25:04.596Z,2.93
2017-06-18T19:27:32.465Z,2.90
2017-06-18T19:30:00.035Z,3.00
2017-06-18T19:32:27.733Z,2.90
2017-06-18T19:34:55.816Z,3.07
2017-06-18T19:37:23.372Z,2.67
2017-06-18T19:39:50.836Z,3.73
2017-06-18T19:42:18.387Z,4.23
2017-06-18T19:44:45.900Z,3.27
2017-06-18T19:47:13.343Z,2.63
2017-06-18T19:49:41.521Z,2.90
2017-06-18T19:52:09.326Z,2.80
2017-06-18T19:54:36.806Z,3.27
2017-06-18T19:57:04.275Z,3.33
2017-06-18T19:59:31.742Z,2.83
2017-06-18T20:01:59.818Z,3.53
2017-06-18T20:04:28.136Z,3.00
2017-06-18T20:06:55.584Z,3.97
2017-06-18T20:09:23.064Z,3.77
2017-06-18T20:11:50.509Z,4.17
2017-06-18T20:14:18.037Z,4.47
2017-06-18T20:16:45.524Z,4.13
2017-06-18T20:19:13.006Z,4.80
2017-06-18T20:21:41.139Z,4.50
2017-06-18T20:24:08.600Z,4.10
2017-06-18T20:26:36.194Z,4.37
2017-06-18T20:29:03.650Z,4.07
2017-06-18T20:31:31.114Z,4.37
2017-06-18T20:33:58.596Z,5.33
2017-06-18T20:36:26.075Z,5.50
2017-06-18T20:38:53.561Z,4.90
2017-06-18T20:41:21.044Z,4.23
2017-06-18T20:43:48.675Z,4.30
2017-06-18T20:46:16.112Z,3.50
2017-06-18T20:48:43.567Z,3.40
2017-06-18T20:51:11.046Z,3.80
2017-06-18T20:53:38.513Z,4.37
2017-06-18T20:56:06.913Z,3.70
2017-06-18T20:58:34.405Z,3.80
2017-06-18T21:01:02.400Z,4.20
2017-06-18T21:03:29.883Z,4.87
2017-06-18T21:05:57.339Z,4.27
2017-06-18T21:08:24.851Z,4.40
2017-06-18T21:10:52.313Z,4.33
2017-06-18T21:13:19.770Z,3.60
2017-06-18T21:15:47.283Z,3.90
2017-06-18T21:18:14.752Z,3.47
2017-06-18T21:20:42.215Z,4.27
2017-06-18T21:23:09.868Z,3.20
2017-06-18T21:25:37.325Z,4.63
2017-06-18T21:28:05.324Z,3.80
2017-06-18T21:30:32.800Z,4.10
2017-06-18T21:33:01.067Z,3.60
2017-06-18T21:35:28.564Z,3.53
2017-06-18T21:37:56.029Z,3.70
2017-06-18T21:40:23.472Z,3.50
2017-06-18T21:42:51.127Z,4.23
2017-06-18T21:45:19.067Z,3.90
2017-06-18T21:47:46.560Z,3.60
2017-06-18T21:50:14.239Z,3.80
2017-06-18T21:52:41.697Z,4.33
2017-06-18T21:55:09.163Z,4.60
2017-06-18T21:57:36.664Z,4.23
2017-06-18T22:00:04.124Z,3.90
2017-06-18T22:02:31.593Z,3.90
2017-06-18T22:04:59.673Z,5.17
2017-06-18T22:07:27.115Z,4.90
2017-06-18T22:09:54.555Z,4.60
2017-06-18T22:12:22.048Z,4.00
2017-06-18T22:14:49.711Z,4.33
2017-06-18T22:17:17.168Z,4.77
2017-06-18T22:19:44.630Z,4.00
2017-06-18T22:22:12.103Z,4.70
2017-06-18T22:24:39.553Z,4.80
2017-06-18T22:27:07.007Z,4.27
2017-06-18T22:29:34.477Z,4.93
2017-06-18T22:32:01.925Z,6.13
2017-06-18T22:34:29.363Z,5.03
2017-06-18T22:36:56.864Z,6.80
2017-06-18T22:39:25.115Z,6.67
2017-06-18T22:41:52.556Z,5.10
2017-06-18T22:44:20.040Z,5.83
2017-06-18T22:46:48.119Z,6.00
2017-06-18T22:49:15.584Z,6.10
2017-06-18T22:51:43.052Z,6.60
2017-06-18T22:54:10.604Z,5.80
2017-06-18T22:56:38.959Z,5.47
2017-06-18T22:59:06.392Z,5.53
2017-06-18T23:01:33.990Z,7.40
2017-06-18T23:04:01.916Z,5.90
2017-06-18T23:06:29.386Z,6.83
2017-06-18T23:08:56.829Z,6.77
2017-06-18T23:11:24.359Z,7.83
2017-06-18T23:13:51.842Z,9.47
2017-06-18T23:16:19.319Z,9.00
2017-06-18T23:18:46.951Z,8.80
2017-06-18T23:21:14.412Z,9.90
2017-06-18T23:23:41.864Z,8.90
2017-06-18T23:26:09.346Z,9.30
2017-06-18T23:28:36.791Z,9.50
2017-06-18T23:31:04.279Z,8.87
2017-06-18T23:33:31.739Z,8.73
2017-06-18T23:35:59.185Z,9.20
2017-06-18T23:38:26.662Z,9.70
2017-06-18T23:40:54.132Z,10.50
2017-06-18T23:43:21.647Z,11.60
2017-06-18T23:45:49.124Z,10.67
2017-06-18T23:48:16.586Z,11.17
2017-06-18T23:50:44.193Z,9.63
2017-06-18T23:53:11.622Z,9.90
2017-06-18T23:55:39.086Z,10.50
2017-06-18T23:58:06.588Z,10.20
